Flight Track Log - Related Links

Times and Time Zones

All times are in EDT time to prevent confusion due to time zone crossing. See the N247MW flight status page for this flight to view local times or setup timezone preferences in your user account.

Time Position Orientation Groundspeed Altitude Reporting Facility
EDT Latitude Longitude Course Direction KTS MPH feet Rate Location/Type
Sat 09:01:31 AM 46.3014 -87.3839 136° Southeast 128 147 5,000  Level Minneapolis Center
Sat 09:02:32 AM 46.2900 -87.3064 102° East 194 223 3,200 -639 Descending Minneapolis Center
Sat 09:03:33 AM 46.2711 -87.2297 110° East 198 228 3,700 448 Climbing Minneapolis Center
Sat 09:04:46 AM 46.2489 -87.1497 112° Southeast 209 241 4,200 537 Climbing Minneapolis Center
Sat 09:05:47 AM 46.2294 -87.0756 111° Southeast 196 226 4,900 341 Climbing Minneapolis Center
Sat 09:06:49 AM 46.1992 -86.9836 115° Southeast 202 232 4,900  Level Minneapolis Center
Sat 09:07:00 AM 46.1178 -87.0708 136° Southeast  Level Estimated
Sat 09:07:50 AM 46.1797 -86.9033 109° East 207 238 4,900  Level Minneapolis Center
Sat 09:08:51 AM 46.1603 -86.8236 109° East 206 237 4,900  Level Minneapolis Center
Sat 09:09:53 AM 46.1422 -86.7444 108° East 205 236 4,900  Level Minneapolis Center
Sat 09:10:54 AM 46.1239 -86.6636 108° East 207 238 4,900  Level Minneapolis Center
Sat 09:11:55 AM 46.1039 -86.5847 110° East 207 238 4,900  Level Minneapolis Center
Sat 09:12:57 AM 46.0781 -86.5108 117° Southeast 204 235 4,900  Level Minneapolis Center
Sat 09:13:58 AM 46.0578 -86.4525 117° Southeast 205 236 4,900  Level Minneapolis Center
Sat 09:14:59 AM 46.0278 -86.3597 115° Southeast 205 236 4,900  Level Minneapolis Center
Sat 09:16:00 AM 46.0069 -86.2811 111° Southeast 206 237 4,900  Level Minneapolis Center
Sat 09:17:02 AM 45.9875 -86.2069 111° Southeast 205 236 4,900  Level Minneapolis Center
Sat 09:18:03 AM 45.9564 -86.1369 123° Southeast 202 232 4,900 49 Level Minneapolis Center
Sat 09:19:04 AM 45.9158 -86.0939 144° Southeast 198 228 5,000 49 Climbing Minneapolis Center
Sat 09:20:06 AM 45.8756 -86.0419 138° Southeast 198 228 5,000  Level Minneapolis Center
Sat 09:21:07 AM 45.8361 -85.9842 134° Southeast 198 228 5,000  Level Minneapolis Center
Sat 09:22:08 AM 45.7964 -85.9336 138° Southeast 196 226 5,000 -49 Level Minneapolis Center
Sat 09:23:10 AM 45.7561 -85.8778 136° Southeast 196 226 4,900 -49 Descending Minneapolis Center
Sat 09:24:11 AM 45.7075 -85.8106 136° Southeast 200 230 4,900  Level Minneapolis Center
Sat 09:25:25 AM 45.6597 -85.7461 137° Southeast 200 230 4,900  Level Minneapolis Center
Sat 09:26:26 AM 45.6194 -85.6919 137° Southeast 199 229 4,900  Level Minneapolis Center
Sat 09:27:39 AM 45.5797 -85.6383 137° Southeast 198 228 4,900  Level Minneapolis Center
Sat 09:28:41 AM 45.5308 -85.5731 137° Southeast 199 229 4,900  Level Minneapolis Center
Sat 09:29:42 AM 45.4903 -85.5194 137° Southeast 199 229 4,900  Level Minneapolis Center
Sat 09:30:44 AM 45.4494 -85.4650 137° Southeast 200 230 4,900  Level Minneapolis Center
Sat 09:31:45 AM 45.4089 -85.4106 137° Southeast 200 230 4,900  Level Minneapolis Center
Sat 09:32:46 AM 45.3686 -85.3581 138° Southeast 199 229 4,900  Level Minneapolis Center
Sat 09:33:48 AM 45.3200 -85.2942 137° Southeast 198 228 4,900  Level Minneapolis Center
Sat 09:34:49 AM 45.2778 -85.2456 141° Southeast 197 227 4,900  Level Minneapolis Center
Sat 09:35:50 AM 45.2317 -85.2075 150° Southeast 194 223 4,900  Level Minneapolis Center
Sat 09:37:04 AM 45.1856 -85.1678 149° Southeast 193 222 4,900  Level Minneapolis Center
Sat 09:38:05 AM 45.1392 -85.1272 148° Southeast 194 223 4,900  Level Minneapolis Center
Sat 09:39:07 AM 45.0850 -85.0775 147° Southeast 195 224 4,900  Level Minneapolis Center
Sat 09:40:08 AM 45.0386 -85.0369 148° Southeast 195 224 4,900  Level Minneapolis Center
Sat 09:41:09 AM 44.9928 -84.9975 149° Southeast 194 223 4,900  Level Minneapolis Center
Sat 09:42:11 AM 44.9464 -84.9572 148° Southeast 194 223 4,900  Level Minneapolis Center
Sat 09:43:12 AM 44.9089 -84.9253 149° Southeast 195 224 4,900 49 Level Minneapolis Center
Sat 09:44:13 AM 44.8433 -84.8689 149° Southeast 199 229 5,000  Climbing Minneapolis Center
Sat 09:45:15 AM 44.7969 -84.8286 148° Southeast 196 226 4,900 -49 Descending Minneapolis Center
Sat 09:46:16 AM 44.7536 -84.7903 148° Southeast 189 217 4,900  Level Minneapolis Center
Sat 09:47:17 AM 44.7083 -84.7514 149° Southeast 189 217 4,900  Level Minneapolis Center
Sat 09:48:19 AM 44.6628 -84.7097 147° Southeast 191 220 4,900  Level Minneapolis Center
Sat 09:49:20 AM 44.6183 -84.6656 145° Southeast 193 222 4,900  Level Minneapolis Center
Sat 09:50:22 AM 44.5739 -84.6225 145° Southeast 194 223 4,900  Level Minneapolis Center
Sat 09:51:23 AM 44.5306 -84.5794 145° Southeast 194 223 4,900 49 Level Minneapolis Center
Sat 09:52:25 AM 44.4778 -84.5297 146° Southeast 200 230 5,000 49 Climbing Minneapolis Center
Sat 09:53:26 AM 44.4303 -84.4839 145° Southeast 195 224 5,000  Level Minneapolis Center
Sat 09:54:28 AM 44.3869 -84.4408 145° Southeast 194 223 5,000  Level Minneapolis Center
Sat 09:55:29 AM 44.3383 -84.3939 145° Southeast 199 229 5,000  Level Minneapolis Center
Sat 09:56:31 AM 44.2947 -84.3522 146° Southeast 193 222 5,000  Level Minneapolis Center
Sat 09:57:32 AM 44.2511 -84.3106 146° Southeast 192 221 5,000  Level Minneapolis Center
Sat 09:58:34 AM 44.2036 -84.2642 145° Southeast 194 223 5,000  Level Minneapolis Center
Sat 09:59:36 AM 44.1606 -84.2222 145° Southeast 193 222 5,000  Level Minneapolis Center
Sat 10:00:37 AM 44.1128 -84.1778 146° Southeast 194 223 5,000  Level Minneapolis Center
Sat 10:01:39 AM 44.0706 -84.1347 144° Southeast 192 221 5,000  Level Minneapolis Center
Sat 10:02:40 AM 44.0244 -84.0858 143° Southeast 195 224 5,000  Level Minneapolis Center
Sat 10:03:42 AM 43.9814 -84.0419 144° Southeast 194 223 5,000  Level Minneapolis Center
Sat 10:04:43 AM 43.9492 -84.0097 144° Southeast 193 222 5,000  Level Minneapolis Center
Sat 10:06:00 AM 43.8934 -83.9536 144° Southeast  Level FlightAware Approximate
Sat 10:13:00 AM 43.5885 -83.6493 144° Southeast  Level FlightAware Approximate
Sat 10:13:36 AM 43.5522 -83.6136 144° Southeast 191 220 5,000  Level Cleveland Center
Sat 10:14:00 AM 43.5449 -83.6061 144° Southeast  Level FlightAware Approximate
Sat 10:14:36 AM 43.5114 -83.5744 145° Southeast 191 220 5,000  Level Cleveland Center
Sat 10:15:00 AM 43.5013 -83.5629 144° Southeast  Level FlightAware Approximate
Sat 10:15:36 AM 43.4769 -83.5356 141° Southeast 191 220 5,000  Level Cleveland Center
Sat 10:16:00 AM 43.4576 -83.5198 144° Southeast  Level FlightAware Approximate
Sat 10:17:00 AM 43.4139 -83.4768 144° Southeast  Level FlightAware Approximate
Sat 10:17:00 AM 43.4185 -83.4704 141° Southeast  Level Estimated
Sat 10:18:00 AM 43.3703 -83.4338 144° Southeast  Level FlightAware Approximate
Sat 10:24:00 AM 43.1258 -83.1466 141° Southeast  Level Estimated
Sat 10:25:00 AM 43.0839 -83.1006 141° Southeast  Level Estimated
Sat 10:26:00 AM 43.0420 -83.0547 141° Southeast  Level Estimated
Sat 10:27:00 AM 43.0001 -83.0088 141° Southeast  Level Estimated
Sat 10:28:00 AM 42.9581 -82.9630 141° Southeast  Level Estimated
Sat 10:29:00 AM 42.9161 -82.9172 141° Southeast  Level Estimated
Sat 10:30:00 AM 42.8742 -82.8715 141° Southeast  Level Estimated
Sat 10:31:00 AM 42.8322 -82.8259 141° Southeast  Level Estimated
Sat 10:32:00 AM 42.7901 -82.7803 141° Southeast  Level Estimated
Sat 10:33:00 AM 42.7481 -82.7348 142° Southeast  Level Estimated
Sat 10:34:00 AM 42.7061 -82.6894 142° Southeast  Level Estimated
Sat 10:35:00 AM 42.6640 -82.6440 142° Southeast  Level Estimated
Sat 10:35:36 AM 42.6181 -82.6936 142° Southeast 197 227 5,000  Level Cleveland Center
Sat 10:36:00 AM 42.6219 -82.5987 142° Southeast  Level Estimated
Sat 10:36:36 AM 42.5728 -82.6528 146° Southeast 197 227 5,000  Level Cleveland Center
Sat 10:37:00 AM 42.5798 -82.5534 142° Southeast  Level Estimated
Sat 10:37:36 AM 42.5300 -82.6089 143° Southeast 197 227 5,000  Level Cleveland Center
Sat 10:38:00 AM 42.5377 -82.5082 142° Southeast  Level Estimated
Sat 10:38:36 AM 42.4869 -82.5681 145° Southeast 197 227 4,900  Level Cleveland Center
Sat 10:39:00 AM 42.4955 -82.4631 142° Southeast  Level Estimated
Sat 10:39:36 AM 42.4439 -82.5275 145° Southeast 197 227 4,900  Level Cleveland Center
Sat 10:40:36 AM 42.4008 -82.4839 143° Southeast 192 221 4,900  Level Cleveland Center
Sat 10:41:36 AM 42.3575 -82.4433 145° Southeast 192 221 4,900 50 Level Cleveland Center
Sat 10:42:36 AM 42.3167 -82.3944 138° Southeast 192 221 5,000  Climbing Cleveland Center
Sat 10:43:36 AM 42.2778 -82.3456 137° Southeast 192 221 4,900 -50 Descending Cleveland Center
Sat 10:44:36 AM 42.2389 -82.2994 139° Southeast 192 221 4,900  Level Cleveland Center
Sat 10:45:36 AM 42.2000 -82.2481 136° Southeast 192 221 4,900  Level Cleveland Center
Sat 10:46:36 AM 42.1592 -82.1994 139° Southeast 192 221 4,900  Level Cleveland Center
Sat 10:47:36 AM 42.1203 -82.1508 137° Southeast 192 221 4,900  Level Cleveland Center
Sat 10:48:36 AM 42.0750 -82.0964 138° Southeast 192 221 4,900  Level Cleveland Center
Sat 10:49:36 AM 42.0361 -82.0481 137° Southeast 197 227 4,900  Level Cleveland Center
Sat 10:50:36 AM 41.9928 -81.9997 140° Southeast 197 227 4,900  Level Cleveland Center
Sat 10:51:36 AM 41.9622 -81.9403 125° Southeast 197 227 4,900  Level Cleveland Center
Sat 10:52:36 AM 41.9358 -81.8867 123° Southeast 197 227 4,900  Level Cleveland Center
Sat 10:53:36 AM 41.9094 -81.8219 119° Southeast 197 227 4,900  Level Cleveland Center
Sat 10:54:36 AM 41.8789 -81.7600 124° Southeast 197 227 4,900  Level Cleveland Center
Sat 10:55:36 AM 41.8483 -81.6981 123° Southeast 197 227 4,900 -100 Level Cleveland Center
Sat 10:56:36 AM 41.8197 -81.6336 121° Southeast 197 227 4,700 -300 Descending Cleveland Center
Sat 10:57:36 AM 41.7869 -81.5633 122° Southeast 197 227 4,300 -496 Descending Cleveland Center
Sat 10:58:49 AM 41.7583 -81.4933 119° Southeast 181 208 3,600 -672 Descending Cleveland Center
Sat 10:59:50 AM 41.7442 -81.4181 104° East 186 214 2,800 -397 Descending Cleveland Center
Sat 11:00:50 AM 41.7342 -81.3678 105° East 131 151 2,800  Level Cleveland Center
Sat 11:01:51 AM 41.7178 -81.3369 125° Southeast 108 124 2,800  Level Cleveland Center
Sat 11:02:52 AM 41.6928 -81.3200 153° Southeast 107 123 2,800 -98 Level Cleveland Center
Sat 11:03:53 AM 41.6678 -81.3336 202° Southwest 94 108 2,600 -98 Descending Cleveland Center
Sat 11:04:54 AM 41.6489 -81.3583 224° Southwest 105 121 2,600 -149 Level Cleveland Center
Sat 11:05:54 AM 41.6278 -81.3858 224° Southwest 105 121 2,300 -248 Descending Cleveland Center
Sat 11:06:55 AM 41.6067 -81.4161 227° Southwest 108 124 2,100 -197 Descending Cleveland Center

Login

Don't have an account? Register now (free) for customized features, flight alerts, and more!